Time;durP1;ratioP1;P1;durP2;ratioP2;P2;SDS_P1;SDS_P2;PMS_P1;PMS_P2;Temp;Humidity;BMP_temperature;BMP_pressure;BME280_temperature;BME280_humidity;BME280_pressure;Samples;Min_cycle;Max_cycle;Signal;HPM_P1;HPM_P2
2021/11/21 00:00:12;;;;;;;7.78;6.00;;;8.70;99.90;;;;;;5069084;28;20537;-52
2021/11/21 00:02:38;;;;;;;9.05;5.97;;;8.70;99.90;;;;;;5051568;28;20021;-53
2021/11/21 00:05:05;;;;;;;8.15;5.72;;;8.70;99.90;;;;;;5063331;28;20534;-57
2021/11/21 00:07:31;;;;;;;10.68;5.80;;;8.70;99.90;;;;;;5040272;28;20056;-56
2021/11/21 00:09:56;;;;;;;5.13;4.47;;;8.70;99.90;;;;;;5051884;28;20048;-55
2021/11/21 00:12:22;;;;;;;8.43;5.63;;;8.70;99.90;;;;;;5062545;28;20029;-54
2021/11/21 00:14:47;;;;;;;9.13;5.28;;;8.70;99.90;;;;;;5070145;28;20056;-57
2021/11/21 00:17:13;;;;;;;7.13;5.32;;;8.70;99.90;;;;;;5069085;28;20067;-54
2021/11/21 00:19:41;;;;;;;9.85;5.32;;;8.70;99.90;;;;;;5070224;28;20111;-53
2021/11/21 00:22:13;;;;;;;10.02;5.43;;;8.70;99.90;;;;;;5066026;28;20025;-56
2021/11/21 00:24:40;;;;;;;6.15;5.25;;;8.70;99.90;;;;;;5052668;28;20369;-54
2021/11/21 00:27:06;;;;;;;8.20;5.30;;;8.70;99.90;;;;;;5062150;28;20120;-52
2021/11/21 00:29:32;;;;;;;9.80;5.05;;;8.70;99.90;;;;;;5049446;28;20064;-55
2021/11/21 00:31:57;;;;;;;11.18;6.25;;;8.70;99.90;;;;;;5049883;28;20056;-52
2021/11/21 00:34:23;;;;;;;6.40;4.95;;;8.70;99.90;;;;;;5056009;28;20514;-56
2021/11/21 00:36:49;;;;;;;5.28;4.78;;;8.60;99.90;;;;;;5040959;28;20083;-54
2021/11/21 00:39:14;;;;;;;8.48;6.10;;;8.60;99.90;;;;;;5049614;28;20036;-54
2021/11/21 00:41:40;;;;;;;10.38;5.15;;;8.60;99.90;;;;;;5031647;28;20103;-56
2021/11/21 00:44:05;;;;;;;8.35;5.00;;;8.60;99.90;;;;;;5049851;28;20079;-57
2021/11/21 00:46:31;;;;;;;9.23;4.85;;;8.60;99.90;;;;;;5049802;28;20029;-52
2021/11/21 00:48:57;;;;;;;9.50;4.85;;;8.60;99.90;;;;;;5052155;28;20028;-54
2021/11/21 00:51:23;;;;;;;8.70;5.38;;;8.60;99.90;;;;;;5059020;28;20055;-51
2021/11/21 00:53:54;;;;;;;6.28;5.00;;;8.60;99.90;;;;;;5049248;28;20511;-54
2021/11/21 00:56:20;;;;;;;9.35;5.60;;;8.60;99.90;;;;;;5049181;28;20088;-56
2021/11/21 00:58:46;;;;;;;8.45;4.90;;;8.60;99.90;;;;;;5049991;28;20051;-56
2021/11/21 01:01:12;;;;;;;9.18;4.65;;;8.60;99.90;;;;;;5068999;28;20608;-54
2021/11/21 01:03:38;;;;;;;8.85;5.15;;;8.60;99.90;;;;;;5050312;28;20089;-54
2021/11/21 01:06:04;;;;;;;6.40;4.70;;;8.60;99.90;;;;;;5048737;28;20748;-53
2021/11/21 01:08:31;;;;;;;7.03;4.25;;;8.60;99.90;;;;;;5060071;28;20020;-53
2021/11/21 01:11:01;;;;;;;9.40;5.05;;;8.70;99.90;;;;;;5068022;28;20535;-54
2021/11/21 01:13:28;;;;;;;5.80;4.30;;;8.60;99.90;;;;;;5052755;28;20020;-54
2021/11/21 01:15:54;;;;;;;9.40;5.07;;;8.60;99.90;;;;;;5049145;28;20630;-53
2021/11/21 01:18:20;;;;;;;8.45;4.82;;;8.70;99.90;;;;;;5048335;28;20055;-56
2021/11/21 01:20:46;;;;;;;7.70;5.05;;;8.70;99.90;;;;;;5060432;28;20491;-54
2021/11/21 01:23:14;;;;;;;7.20;4.63;;;8.60;99.90;;;;;;5051902;28;20024;-53
2021/11/21 01:25:42;;;;;;;6.70;3.90;;;8.70;99.90;;;;;;5068154;28;20640;-54
2021/11/21 01:28:08;;;;;;;8.88;3.97;;;8.60;99.90;;;;;;5053000;28;20063;-56
2021/11/21 01:30:34;;;;;;;5.85;4.00;;;8.60;99.90;;;;;;5067943;28;20040;-56
2021/11/21 01:33:01;;;;;;;8.32;4.82;;;8.70;99.90;;;;;;5067697;28;20028;-53
2021/11/21 01:35:27;;;;;;;7.28;4.63;;;8.70;99.90;;;;;;5068193;28;20135;-53
2021/11/21 01:37:53;;;;;;;5.03;4.53;;;8.70;99.90;;;;;;5067668;28;20699;-54
2021/11/21 01:40:20;;;;;;;5.90;4.10;;;8.70;99.90;;;;;;5068583;28;20061;-52
2021/11/21 01:42:47;;;;;;;5.90;4.45;;;8.70;99.90;;;;;;5067694;28;20495;-55
2021/11/21 01:45:13;;;;;;;6.38;4.45;;;8.70;99.90;;;;;;5068165;28;20031;-52
2021/11/21 01:47:42;;;;;;;6.72;4.00;;;8.70;99.90;;;;;;5067754;28;20024;-52
2021/11/21 01:50:11;;;;;;;7.15;4.85;;;8.70;99.90;;;;;;5053688;28;20085;-52
2021/11/21 01:52:36;;;;;;;5.30;4.40;;;8.70;99.90;;;;;;5052233;28;20048;-52
2021/11/21 01:55:04;;;;;;;8.48;4.93;;;8.70;99.90;;;;;;5066310;28;20059;-55
2021/11/21 01:57:29;;;;;;;10.55;5.05;;;8.70;99.90;;;;;;5054328;28;20040;-54
2021/11/21 01:59:59;;;;;;;8.40;4.20;;;8.70;99.90;;;;;;5045494;28;20459;-52
2021/11/21 02:02:25;;;;;;;12.48;5.43;;;8.70;99.90;;;;;;5047436;28;20059;-54
2021/11/21 02:04:51;;;;;;;6.63;5.07;;;8.70;99.90;;;;;;5066381;28;20028;-55
2021/11/21 02:07:16;;;;;;;5.20;4.70;;;8.70;99.90;;;;;;5067866;28;20040;-53
2021/11/21 02:09:42;;;;;;;11.68;5.40;;;8.70;99.90;;;;;;5067972;28;20096;-53
2021/11/21 02:12:08;;;;;;;5.88;4.43;;;8.70;99.90;;;;;;5057286;28;20037;-52
2021/11/21 02:14:33;;;;;;;7.57;5.35;;;8.70;99.90;;;;;;5048234;28;20401;-52
2021/11/21 02:16:59;;;;;;;11.40;5.50;;;8.70;99.90;;;;;;5052969;28;20024;-52
2021/11/21 02:19:24;;;;;;;6.47;4.53;;;8.60;99.90;;;;;;5067753;28;20025;-51
2021/11/21 02:21:50;;;;;;;6.00;5.20;;;8.60;99.90;;;;;;5057259;28;20133;-55
2021/11/21 02:24:16;;;;;;;8.98;5.82;;;8.60;99.90;;;;;;5055490;28;20142;-51
2021/11/21 02:26:42;;;;;;;9.05;5.90;;;8.60;99.90;;;;;;5059046;28;20060;-51
2021/11/21 02:29:09;;;;;;;10.43;6.10;;;8.50;99.90;;;;;;5067781;28;20021;-54
2021/11/21 02:31:35;;;;;;;7.93;5.55;;;8.50;99.90;;;;;;5067943;28;20408;-54
2021/11/21 02:34:01;;;;;;;6.80;5.35;;;8.50;99.90;;;;;;5042772;28;20419;-51
2021/11/21 02:36:27;;;;;;;9.10;6.05;;;8.50;99.90;;;;;;5056289;28;20078;-52
2021/11/21 02:38:52;;;;;;;9.43;6.05;;;8.50;99.90;;;;;;5066353;28;20032;-53
2021/11/21 02:41:18;;;;;;;11.55;6.18;;;8.50;99.90;;;;;;5060575;28;20034;-52
2021/11/21 02:43:44;;;;;;;8.57;5.93;;;8.50;99.90;;;;;;5048205;28;20387;-56
2021/11/21 02:46:11;;;;;;;7.53;5.45;;;8.40;99.90;;;;;;5061707;28;20028;-54
2021/11/21 02:48:38;;;;;;;10.05;6.18;;;8.40;99.90;;;;;;5067010;28;20074;-54
2021/11/21 02:51:06;;;;;;;9.43;6.13;;;8.40;99.90;;;;;;5048873;28;20606;-57
2021/11/21 02:53:34;;;;;;;6.80;5.22;;;8.50;99.90;;;;;;5067841;28;20036;-57
2021/11/21 02:56:12;;;;;;;8.60;5.90;;;8.50;99.90;;;;;;5067133;28;20511;-55
2021/11/21 02:58:38;;;;;;;7.38;4.78;;;8.40;99.90;;;;;;5066675;28;20579;-57
2021/11/21 03:01:16;;;;;;;6.45;4.45;;;8.40;99.90;;;;;;5058678;28;20171;-52
2021/11/21 03:03:42;;;;;;;5.47;4.25;;;8.40;99.90;;;;;;5034798;28;20053;-55
2021/11/21 03:06:08;;;;;;;3.80;3.40;;;8.40;99.90;;;;;;5056741;28;20036;-55
2021/11/21 03:08:34;;;;;;;2.85;2.47;;;8.40;99.90;;;;;;5069402;28;20024;-55
2021/11/21 03:11:10;;;;;;;2.72;2.20;;;8.40;99.90;;;;;;5069444;28;20028;-53
2021/11/21 03:13:36;;;;;;;;;;;8.40;99.90;;;;;;5051617;28;20025;-51
2021/11/21 03:16:01;;;;;;;3.30;2.40;;;8.40;99.90;;;;;;5044159;28;19916;-53
2021/11/21 03:18:27;;;;;;;4.03;1.63;;;8.40;99.90;;;;;;5060263;28;20025;-53
2021/11/21 03:20:52;;;;;;;2.72;1.88;;;8.40;99.90;;;;;;5060611;28;20366;-52
2021/11/21 03:23:18;;;;;;;2.53;1.90;;;8.40;99.90;;;;;;5067758;28;20029;-56
2021/11/21 03:25:43;;;;;;;4.78;2.65;;;8.40;99.90;;;;;;5051327;28;20033;-54
2021/11/21 03:28:09;;;;;;;2.67;2.45;;;8.40;99.90;;;;;;5050655;28;20021;-55
2021/11/21 03:30:35;;;;;;;3.72;2.92;;;8.40;99.90;;;;;;5061818;28;20033;-57
2021/11/21 03:33:01;;;;;;;3.50;2.70;;;8.40;99.90;;;;;;5070973;28;20036;-53
2021/11/21 03:35:26;;;;;;;3.42;2.70;;;8.40;99.90;;;;;;5068319;28;20034;-56
2021/11/21 03:37:52;;;;;;;4.13;2.72;;;8.40;99.90;;;;;;5055596;28;20033;-53
2021/11/21 03:40:18;;;;;;;2.92;2.17;;;8.40;99.90;;;;;;5061516;28;20029;-56
2021/11/21 03:42:45;;;;;;;3.00;2.05;;;8.40;99.90;;;;;;5069528;28;20455;-55
2021/11/21 03:45:11;;;;;;;3.28;2.50;;;8.40;99.90;;;;;;5052278;28;20025;-55
2021/11/21 03:47:37;;;;;;;3.20;2.40;;;8.40;99.90;;;;;;5056728;28;20029;-52
2021/11/21 03:50:04;;;;;;;3.08;1.75;;;8.40;99.90;;;;;;5050615;28;20033;-56
2021/11/21 03:52:30;;;;;;;2.40;1.88;;;8.40;99.90;;;;;;5069161;28;20059;-56
2021/11/21 03:54:55;;;;;;;3.78;1.80;;;8.40;99.90;;;;;;5069613;28;20060;-53
2021/11/21 03:57:21;;;;;;;2.10;1.90;;;8.40;99.90;;;;;;5052428;28;20097;-53
2021/11/21 03:59:46;;;;;;;3.28;2.25;;;8.40;99.90;;;;;;5069528;28;20024;-56
2021/11/21 04:02:12;;;;;;;1.77;1.63;;;8.40;99.90;;;;;;5069176;28;20032;-55
2021/11/21 04:04:38;;;;;;;2.55;2.20;;;8.40;99.90;;;;;;5052164;28;20109;-52
2021/11/21 04:07:03;;;;;;;2.35;2.00;;;8.40;99.90;;;;;;5050716;28;20025;-56
2021/11/21 04:09:29;;;;;;;5.90;2.85;;;8.40;99.90;;;;;;5059961;28;20104;-57
2021/11/21 04:11:54;;;;;;;4.25;3.15;;;8.40;99.90;;;;;;5050640;28;20544;-55
2021/11/21 04:14:20;;;;;;;3.65;2.80;;;8.40;99.90;;;;;;5050714;28;20434;-54
2021/11/21 04:16:46;;;;;;;5.18;3.03;;;8.40;99.90;;;;;;5050406;28;20108;-54
2021/11/21 04:19:12;;;;;;;5.63;3.60;;;8.40;99.90;;;;;;5049964;28;20143;-53
2021/11/21 04:21:38;;;;;;;3.55;3.10;;;8.40;99.90;;;;;;5061125;28;20167;-57
2021/11/21 04:24:05;;;;;;;4.30;3.50;;;8.40;99.90;;;;;;5059540;28;20079;-56
2021/11/21 04:26:31;;;;;;;5.00;3.72;;;8.40;99.90;;;;;;5050487;28;20028;-52
2021/11/21 04:28:57;;;;;;;6.90;3.95;;;8.40;99.90;;;;;;5066473;28;20036;-54
2021/11/21 04:31:22;;;;;;;6.35;4.22;;;8.40;99.90;;;;;;5053879;28;20028;-55
2021/11/21 04:33:48;;;;;;;6.28;3.90;;;8.40;99.90;;;;;;5069930;28;20029;-57
2021/11/21 04:36:14;;;;;;;5.72;4.07;;;8.40;99.90;;;;;;5068762;28;20028;-57
2021/11/21 04:38:39;;;;;;;7.20;4.47;;;8.40;99.90;;;;;;5059268;28;20042;-55
2021/11/21 04:41:05;;;;;;;4.35;3.78;;;8.40;99.90;;;;;;5069129;28;20138;-52
2021/11/21 04:43:30;;;;;;;7.43;3.30;;;8.40;99.90;;;;;;5070078;28;20385;-56
2021/11/21 04:45:56;;;;;;;5.07;3.42;;;8.40;99.90;;;;;;5059708;28;20105;-54
2021/11/21 04:48:23;;;;;;;3.85;3.10;;;8.40;99.90;;;;;;5049628;28;20028;-54
2021/11/21 04:50:50;;;;;;;7.53;3.13;;;8.40;99.90;;;;;;5054858;28;20555;-54
2021/11/21 04:53:15;;;;;;;6.18;2.92;;;8.40;99.90;;;;;;5056777;28;20040;-56
2021/11/21 04:55:41;;;;;;;6.40;2.70;;;8.30;99.90;;;;;;5049349;28;20021;-53
2021/11/21 04:58:07;;;;;;;2.50;2.13;;;8.30;99.90;;;;;;5048911;28;20799;-54
2021/11/21 05:00:32;;;;;;;3.58;2.60;;;8.40;99.90;;;;;;5048351;28;20017;-53
2021/11/21 05:02:59;;;;;;;2.70;2.05;;;8.30;99.90;;;;;;5054241;28;20028;-51
2021/11/21 05:05:25;;;;;;;5.90;2.58;;;8.30;99.90;;;;;;5060192;28;20039;-54
2021/11/21 05:07:51;;;;;;;3.88;2.20;;;8.30;99.90;;;;;;5047854;28;20021;-54
2021/11/21 05:10:18;;;;;;;4.68;2.13;;;8.30;99.90;;;;;;5048192;28;20067;-56
2021/11/21 05:12:44;;;;;;;5.20;2.20;;;8.30;99.90;;;;;;5048175;28;20099;-54
2021/11/21 05:15:13;;;;;;;3.72;1.95;;;8.30;99.90;;;;;;5039630;28;20036;-55
2021/11/21 05:17:39;;;;;;;3.63;1.70;;;8.30;99.90;;;;;;5053839;28;20558;-54
2021/11/21 05:20:06;;;;;;;5.35;1.60;;;8.30;99.90;;;;;;5050526;28;20029;-52
2021/11/21 05:22:32;;;;;;;3.97;2.10;;;8.20;99.90;;;;;;5060679;28;20040;-52
2021/11/21 05:24:58;;;;;;;3.05;1.60;;;8.20;99.90;;;;;;5047302;28;20037;-54
2021/11/21 05:27:24;;;;;;;2.75;1.40;;;8.30;99.90;;;;;;5058522;28;20146;-52
2021/11/21 05:29:51;;;;;;;1.95;1.42;;;8.20;99.90;;;;;;5067206;28;20029;-54
2021/11/21 05:32:16;;;;;;;2.35;1.27;;;8.20;99.90;;;;;;5056893;28;20032;-51
2021/11/21 05:34:42;;;;;;;4.60;1.88;;;8.20;99.90;;;;;;5047329;28;20170;-53
2021/11/21 05:37:08;;;;;;;3.88;1.67;;;8.20;99.90;;;;;;5065071;28;20129;-54
2021/11/21 05:39:33;;;;;;;4.00;1.95;;;8.20;99.90;;;;;;5053903;28;20770;-52
2021/11/21 05:41:59;;;;;;;4.30;1.60;;;8.20;99.90;;;;;;5054760;28;20021;-53
2021/11/21 05:44:24;;;;;;;2.70;1.38;;;8.20;99.90;;;;;;5067369;28;20062;-53
2021/11/21 05:46:50;;;;;;;3.15;1.27;;;8.20;99.90;;;;;;5067367;28;20078;-51
2021/11/21 05:49:16;;;;;;;3.03;1.33;;;8.10;99.90;;;;;;5067592;28;20028;-52
2021/11/21 05:51:41;;;;;;;3.22;1.48;;;8.10;99.90;;;;;;5066223;28;20047;-54
2021/11/21 05:54:07;;;;;;;3.88;1.58;;;8.10;99.90;;;;;;5046102;28;20043;-51
2021/11/21 05:56:33;;;;;;;4.78;2.28;;;8.10;99.90;;;;;;5047305;28;20088;-51
2021/11/21 05:58:58;;;;;;;5.80;2.17;;;8.10;99.90;;;;;;5057051;28;20029;-53
2021/11/21 06:01:24;;;;;;;;;;;8.10;99.90;;;;;;5030306;28;1044550;-51
2021/11/21 06:03:51;;;;;;;3.37;2.33;;;8.10;99.90;;;;;;5068275;28;19919;-54
2021/11/21 06:06:18;;;;;;;3.63;2.30;;;8.10;99.90;;;;;;5054061;28;20491;-52
2021/11/21 06:08:44;;;;;;;7.05;2.47;;;8.10;99.90;;;;;;5053505;28;20102;-52
2021/11/21 06:11:10;;;;;;;4.93;2.10;;;8.00;99.90;;;;;;5050559;28;20545;-52
2021/11/21 06:13:35;;;;;;;7.95;2.55;;;8.00;99.90;;;;;;5047794;28;20045;-53
2021/11/21 06:16:01;;;;;;;4.97;2.72;;;8.00;99.90;;;;;;5064310;28;20161;-51
2021/11/21 06:18:27;;;;;;;5.85;2.72;;;8.00;99.90;;;;;;5067949;28;20025;-55
2021/11/21 06:20:52;;;;;;;6.22;3.33;;;8.00;99.90;;;;;;5067063;28;20403;-54
2021/11/21 06:23:18;;;;;;;6.93;2.67;;;8.00;99.90;;;;;;5048954;28;20040;-52
2021/11/21 06:25:43;;;;;;;6.53;3.10;;;8.00;99.90;;;;;;5049194;28;20025;-52
2021/11/21 06:28:10;;;;;;;5.30;2.80;;;8.00;99.90;;;;;;5049210;28;20032;-53
2021/11/21 06:30:36;;;;;;;5.63;2.92;;;8.00;99.90;;;;;;5032542;28;20382;-52
2021/11/21 06:33:02;;;;;;;8.30;3.58;;;8.00;99.90;;;;;;5065842;28;20118;-54
2021/11/21 06:35:28;;;;;;;7.40;2.88;;;8.00;99.90;;;;;;5049299;28;20516;-54
2021/11/21 06:37:54;;;;;;;4.95;3.03;;;8.00;99.90;;;;;;5051912;28;20104;-50
2021/11/21 06:40:20;;;;;;;5.95;2.50;;;8.00;99.90;;;;;;5051811;28;20044;-51
2021/11/21 06:42:45;;;;;;;6.72;2.92;;;8.00;99.90;;;;;;5067965;28;20056;-54
2021/11/21 06:45:12;;;;;;;4.60;2.35;;;7.90;99.90;;;;;;5071817;28;20029;-54
2021/11/21 06:47:39;;;;;;;7.70;3.53;;;8.00;99.90;;;;;;5056846;28;20064;-51
2021/11/21 06:50:07;;;;;;;7.10;2.95;;;7.90;99.90;;;;;;5051568;28;20099;-53
2021/11/21 06:52:34;;;;;;;3.42;2.22;;;7.90;99.90;;;;;;5058944;28;20029;-53
2021/11/21 06:55:00;;;;;;;4.88;2.55;;;7.90;99.90;;;;;;5061662;28;20854;-55
2021/11/21 06:57:26;;;;;;;4.72;2.30;;;7.90;99.90;;;;;;5051338;28;20040;-52
2021/11/21 06:59:52;;;;;;;5.78;1.95;;;7.90;99.90;;;;;;5043357;28;20032;-54
2021/11/21 07:02:18;;;;;;;7.65;2.35;;;7.90;99.90;;;;;;5068142;28;20024;-52
2021/11/21 07:04:43;;;;;;;5.57;2.47;;;7.90;99.90;;;;;;5068624;28;20429;-55
2021/11/21 07:07:09;;;;;;;4.35;1.90;;;7.90;99.90;;;;;;5066038;28;20021;-56
2021/11/21 07:09:36;;;;;;;3.97;1.90;;;7.80;99.90;;;;;;5056567;28;20067;-53
2021/11/21 07:12:02;;;;;;;4.85;2.28;;;7.80;99.90;;;;;;5069612;28;20034;-53
2021/11/21 07:14:27;;;;;;;7.03;2.10;;;7.80;99.90;;;;;;5052939;28;20388;-55
2021/11/21 07:16:53;;;;;;;4.85;1.67;;;7.70;99.90;;;;;;5052663;28;20100;-52
2021/11/21 07:19:19;;;;;;;6.15;2.00;;;7.70;99.90;;;;;;5071029;28;20550;-53
2021/11/21 07:21:45;;;;;;;5.28;2.63;;;7.70;99.90;;;;;;5071267;28;20026;-53
2021/11/21 07:24:12;;;;;;;4.72;2.65;;;7.70;99.90;;;;;;5052217;28;20056;-54
2021/11/21 07:26:38;;;;;;;6.40;2.58;;;7.60;99.90;;;;;;5070035;28;20054;-53
2021/11/21 07:29:05;;;;;;;4.93;2.47;;;7.70;99.90;;;;;;5070778;28;20492;-55
2021/11/21 07:31:31;;;;;;;6.45;2.13;;;7.60;99.90;;;;;;5069520;28;20632;-52
2021/11/21 07:33:57;;;;;;;5.55;1.85;;;7.60;99.90;;;;;;5069785;28;20062;-53
2021/11/21 07:36:22;;;;;;;3.88;1.63;;;7.60;99.90;;;;;;5069368;28;20107;-53
2021/11/21 07:38:48;;;;;;;10.40;2.00;;;7.60;99.90;;;;;;5071005;28;20036;-53
2021/11/21 07:41:14;;;;;;;4.95;2.17;;;7.60;99.90;;;;;;5061796;28;20484;-52
2021/11/21 07:43:41;;;;;;;5.60;1.75;;;7.50;99.90;;;;;;5055366;28;20025;-51
2021/11/21 07:46:07;;;;;;;7.00;2.00;;;7.60;99.90;;;;;;5050276;28;20077;-53
2021/11/21 07:48:33;;;;;;;4.60;2.25;;;7.50;99.90;;;;;;5070361;28;20577;-53
2021/11/21 07:51:00;;;;;;;7.80;2.42;;;7.60;99.90;;;;;;5070702;28;20021;-53
2021/11/21 07:53:26;;;;;;;7.45;1.85;;;7.50;99.90;;;;;;5070483;28;20097;-51
2021/11/21 07:55:52;;;;;;;5.35;1.80;;;7.50;99.90;;;;;;5070159;28;20032;-52
2021/11/21 07:58:18;;;;;;;1.77;1.30;;;7.50;99.90;;;;;;5070619;28;20054;-56
2021/11/21 08:00:44;;;;;;;6.97;2.40;;;7.50;99.90;;;;;;5070642;28;20029;-55
2021/11/21 08:03:09;;;;;;;5.10;2.13;;;7.50;99.90;;;;;;5070740;28;20028;-55
2021/11/21 08:05:35;;;;;;;5.82;2.55;;;7.50;99.90;;;;;;5070414;28;20027;-55
2021/11/21 08:08:00;;;;;;;9.40;2.97;;;7.50;99.90;;;;;;5070306;28;20082;-52
2021/11/21 08:10:26;;;;;;;9.07;2.08;;;7.50;99.90;;;;;;5070739;28;20108;-54
2021/11/21 08:12:52;;;;;;;4.82;2.05;;;7.50;99.90;;;;;;5070427;28;20703;-52
2021/11/21 08:15:17;;;;;;;5.00;1.75;;;7.50;99.90;;;;;;5069818;28;20063;-53
2021/11/21 08:17:43;;;;;;;8.50;2.53;;;7.50;99.90;;;;;;5069312;28;20035;-52
2021/11/21 08:20:09;;;;;;;5.75;1.98;;;7.50;99.90;;;;;;5052195;28;20028;-54
2021/11/21 08:22:36;;;;;;;5.18;2.47;;;7.60;99.90;;;;;;5070230;28;20024;-52
2021/11/21 08:25:02;;;;;;;11.55;2.63;;;7.60;99.90;;;;;;5061890;28;20017;-54
2021/11/21 08:27:28;;;;;;;8.20;2.42;;;7.60;99.90;;;;;;5055328;28;20028;-56
2021/11/21 08:29:54;;;;;;;8.55;2.58;;;7.60;99.90;;;;;;5070096;28;20035;-55
2021/11/21 08:32:20;;;;;;;5.38;1.85;;;7.60;99.90;;;;;;5069685;28;20024;-55
2021/11/21 08:34:45;;;;;;;8.20;3.05;;;7.60;99.90;;;;;;5068767;28;20037;-55
2021/11/21 08:37:12;;;;;;;6.70;2.53;;;7.60;99.90;;;;;;5070517;28;20055;-55
2021/11/21 08:39:38;;;;;;;8.15;2.92;;;7.60;99.90;;;;;;5067796;28;20033;-54
2021/11/21 08:42:04;;;;;;;7.28;3.08;;;7.60;99.90;;;;;;5059834;28;20029;-56
2021/11/21 08:44:30;;;;;;;7.82;2.47;;;7.60;99.90;;;;;;5049667;28;20025;-54
2021/11/21 08:46:55;;;;;;;8.70;2.55;;;7.60;99.90;;;;;;5049267;28;20032;-53
2021/11/21 08:49:21;;;;;;;6.93;2.47;;;7.70;99.90;;;;;;5049142;28;20040;-54
2021/11/21 08:51:48;;;;;;;7.38;2.40;;;7.80;99.90;;;;;;5049330;28;20029;-56
2021/11/21 08:54:15;;;;;;;8.25;2.83;;;7.90;99.90;;;;;;5057020;28;20029;-57
2021/11/21 08:56:40;;;;;;;7.65;2.15;;;8.00;99.90;;;;;;5048793;28;20500;-53
2021/11/21 08:59:06;;;;;;;4.82;3.00;;;8.00;99.90;;;;;;5048696;28;20082;-52
2021/11/21 09:01:32;;;;;;;10.90;2.85;;;8.00;99.90;;;;;;5031238;28;20033;-53
2021/11/21 09:03:58;;;;;;;11.40;2.88;;;8.00;99.90;;;;;;5049284;28;20397;-52
2021/11/21 09:06:24;;;;;;;10.05;2.88;;;7.90;99.90;;;;;;5049062;28;20021;-55
2021/11/21 09:08:50;;;;;;;8.25;2.47;;;7.90;99.90;;;;;;5065114;28;20025;-54
2021/11/21 09:11:15;;;;;;;9.52;2.88;;;7.90;99.90;;;;;;5068977;28;20043;-55
2021/11/21 09:13:41;;;;;;;5.57;2.42;;;7.80;99.90;;;;;;5054030;28;20512;-53
2021/11/21 09:16:08;;;;;;;7.15;2.67;;;7.90;99.90;;;;;;5049197;28;20092;-57
2021/11/21 09:18:34;;;;;;;7.18;2.35;;;7.90;99.90;;;;;;5044285;28;20025;-54
2021/11/21 09:21:01;;;;;;;8.48;2.10;;;7.90;99.90;;;;;;5051406;28;20443;-55
2021/11/21 09:23:27;;;;;;;11.00;2.95;;;7.90;99.90;;;;;;5067947;28;20028;-53
2021/11/21 09:25:53;;;;;;;7.30;1.60;;;8.00;99.90;;;;;;5050373;28;20020;-53
2021/11/21 09:28:21;;;;;;;7.68;1.63;;;8.10;99.90;;;;;;5068295;28;20029;-53
2021/11/21 09:30:47;;;;;;;5.95;1.95;;;8.00;99.90;;;;;;5050864;28;20605;-54
2021/11/21 09:33:12;;;;;;;5.22;1.23;;;8.00;99.90;;;;;;5067958;28;20043;-53
2021/11/21 09:35:38;;;;;;;7.55;1.55;;;7.90;99.90;;;;;;5068155;28;20028;-54
2021/11/21 09:38:04;;;;;;;4.63;1.20;;;7.90;99.90;;;;;;5067961;28;20025;-56
2021/11/21 09:40:30;;;;;;;1.95;0.70;;;7.80;99.90;;;;;;5068664;28;20499;-55
2021/11/21 09:42:56;;;;;;;5.57;1.05;;;7.90;99.90;;;;;;5067601;28;20100;-53
2021/11/21 09:45:21;;;;;;;3.95;0.68;;;7.90;99.90;;;;;;5068470;28;20013;-53
2021/11/21 09:47:56;;;;;;;5.43;0.82;;;7.90;99.90;;;;;;5033235;28;20483;-53
2021/11/21 09:50:23;;;;;;;4.85;1.60;;;8.00;99.90;;;;;;5037383;28;20058;-52
2021/11/21 09:52:49;;;;;;;2.83;1.17;;;8.10;99.90;;;;;;5068524;28;20079;-53
2021/11/21 09:55:15;;;;;;;7.38;1.05;;;8.10;99.90;;;;;;5054561;28;20032;-53
2021/11/21 09:57:42;;;;;;;7.32;1.30;;;8.20;99.90;;;;;;5068959;28;20028;-54
2021/11/21 10:00:13;;;;;;;11.57;1.23;;;8.20;99.90;;;;;;5067787;28;20025;-52
2021/11/21 10:02:58;;;;;;;3.03;1.70;;;8.20;99.90;;;;;;5067980;28;20077;-55
2021/11/21 10:05:27;;;;;;;9.35;1.73;;;8.30;99.90;;;;;;5054110;28;20108;-51
2021/11/21 10:08:10;;;;;;;7.53;1.80;;;8.30;99.90;;;;;;5049579;28;20032;-52
2021/11/21 10:10:39;;;;;;;9.25;1.98;;;8.40;99.90;;;;;;5053672;28;20040;-54
2021/11/21 10:13:20;;;;;;;3.30;1.30;;;8.50;99.90;;;;;;5051549;28;20040;-55
2021/11/21 10:15:46;;;;;;;8.30;1.95;;;8.60;99.90;;;;;;5052736;28;20029;-54
2021/11/21 10:18:12;;;;;;;10.18;1.38;;;8.70;99.90;;;;;;5050727;28;20025;-54
2021/11/21 10:20:39;;;;;;;4.95;1.67;;;8.80;99.90;;;;;;5039445;28;20029;-54
2021/11/21 10:23:07;;;;;;;8.02;1.70;;;8.90;99.90;;;;;;5049396;28;20025;-55
2021/11/21 10:25:32;;;;;;;9.45;1.85;;;8.80;99.90;;;;;;5051841;28;20514;-55
2021/11/21 10:28:15;;;;;;;5.30;1.90;;;8.80;99.90;;;;;;5051341;28;20052;-54
2021/11/21 10:31:18;;;;;;;6.72;1.30;;;8.70;99.90;;;;;;5053834;28;20024;-54
2021/11/21 10:33:45;;;;;;;7.80;1.88;;;8.60;99.90;;;;;;5057737;28;20029;-54
2021/11/21 10:36:18;;;;;;;10.75;1.88;;;8.50;99.90;;;;;;5057594;28;20112;-56
2021/11/21 10:38:51;;;;;;;4.85;1.38;;;8.40;99.90;;;;;;5029475;28;20033;-57
2021/11/21 10:41:21;;;;;;;6.85;2.13;;;8.30;99.90;;;;;;5030101;28;20033;-57
2021/11/21 10:43:53;;;;;;;8.80;1.77;;;8.30;99.90;;;;;;5030071;28;20029;-53
2021/11/21 10:46:36;;;;;;;7.10;1.88;;;8.20;99.90;;;;;;5047861;28;20123;-54
2021/11/21 10:49:20;;;;;;;8.27;1.98;;;8.10;99.90;;;;;;5047488;28;20021;-54
2021/11/21 10:51:49;;;;;;;12.40;1.75;;;8.10;99.90;;;;;;5048396;28;20630;-54
2021/11/21 10:54:33;;;;;;;6.30;1.20;;;8.10;99.90;;;;;;5051147;28;20016;-53
2021/11/21 10:57:02;;;;;;;7.78;1.48;;;8.10;99.90;;;;;;5067842;28;20126;-57
2021/11/21 10:59:48;;;;;;;4.25;1.25;;;8.10;99.90;;;;;;5049774;28;20024;-54
2021/11/21 11:02:24;;;;;;;5.18;1.30;;;8.20;99.90;;;;;;5050032;28;20610;-54
2021/11/21 11:04:59;;;;;;;8.05;1.60;;;8.20;99.90;;;;;;5057874;28;20079;-54
2021/11/21 11:07:25;;;;;;;5.68;1.90;;;8.30;99.90;;;;;;5048223;28;20028;-55
2021/11/21 11:09:52;;;;;;;10.60;1.42;;;8.30;99.90;;;;;;5038243;28;20473;-56
2021/11/21 11:12:19;;;;;;;8.35;1.63;;;8.30;99.90;;;;;;5034521;28;20031;-54
2021/11/21 11:14:45;;;;;;;9.55;1.45;;;8.30;99.90;;;;;;5067757;28;20021;-56
2021/11/21 11:17:11;;;;;;;5.38;1.52;;;8.40;99.90;;;;;;5048367;28;20571;-52
2021/11/21 11:19:37;;;;;;;7.00;1.88;;;8.40;99.90;;;;;;5049470;28;20039;-54
2021/11/21 11:22:04;;;;;;;5.18;1.70;;;8.40;99.90;;;;;;5067732;28;20036;-55
2021/11/21 11:24:34;;;;;;;6.55;2.28;;;8.40;99.90;;;;;;5066254;28;20028;-56
2021/11/21 11:27:19;;;;;;;8.55;1.38;;;8.50;99.90;;;;;;5033188;28;20017;-52
2021/11/21 11:29:50;;;;;;;6.57;1.42;;;8.50;99.90;;;;;;5051515;28;20108;-53
2021/11/21 11:32:23;;;;;;;4.90;1.42;;;8.50;99.90;;;;;;5051559;28;20017;-54
2021/11/21 11:34:50;;;;;;;10.35;3.30;;;8.60;99.90;;;;;;5051303;28;20067;-51
2021/11/21 11:37:39;;;;;;;5.15;1.27;;;8.60;99.90;;;;;;5034909;28;20040;-54
2021/11/21 11:40:30;;;;;;;8.25;1.38;;;8.60;99.90;;;;;;5035826;28;20036;-57
2021/11/21 11:42:58;;;;;;;10.40;1.80;;;8.60;99.90;;;;;;5070974;28;20024;-55
2021/11/21 11:45:48;;;;;;;4.78;1.50;;;8.60;99.90;;;;;;5052783;28;20020;-56
2021/11/21 11:48:31;;;;;;;6.07;1.65;;;8.60;99.90;;;;;;5069130;28;20025;-52
2021/11/21 11:50:58;;;;;;;8.00;2.05;;;8.60;99.90;;;;;;5052485;28;20024;-52
2021/11/21 11:53:37;;;;;;;7.18;1.88;;;8.60;99.90;;;;;;5053484;28;20035;-53
2021/11/21 11:56:14;;;;;;;8.80;2.20;;;8.60;99.90;;;;;;5070912;28;20107;-51
2021/11/21 11:58:43;;;;;;;6.57;1.92;;;8.60;99.90;;;;;;5070690;28;20027;-53
2021/11/21 12:01:09;;;;;;;9.93;2.45;;;8.50;99.90;;;;;;5039540;28;20660;-53
2021/11/21 12:03:40;;;;;;;8.73;1.20;;;8.50;99.90;;;;;;5070813;28;20031;-52
2021/11/21 12:06:06;;;;;;;10.23;1.52;;;8.50;99.90;;;;;;5052323;28;20024;-52
2021/11/21 12:08:32;;;;;;;5.65;1.70;;;8.50;99.90;;;;;;5070541;28;20082;-54
2021/11/21 12:10:58;;;;;;;5.45;1.17;;;8.60;99.90;;;;;;5069251;28;20032;-55
2021/11/21 12:13:31;;;;;;;5.82;1.33;;;8.60;99.90;;;;;;5070510;28;20033;-55
2021/11/21 12:16:02;;;;;;;5.18;1.55;;;8.60;99.90;;;;;;5070083;28;20076;-53
2021/11/21 12:18:52;;;;;;;8.88;1.02;;;8.60;99.90;;;;;;5069915;28;20511;-53
2021/11/21 12:21:37;;;;;;;9.45;1.23;;;8.60;99.90;;;;;;5052235;28;20031;-53
2021/11/21 12:24:15;;;;;;;5.05;1.75;;;8.60;99.90;;;;;;5070317;28;20021;-51
2021/11/21 12:26:42;;;;;;;14.93;1.58;;;8.60;99.90;;;;;;5070344;28;20028;-51
2021/11/21 12:29:25;;;;;;;7.38;1.08;;;8.60;99.90;;;;;;5069575;28;20100;-52
2021/11/21 12:31:53;;;;;;;4.50;1.20;;;8.60;99.90;;;;;;5070248;28;20024;-53
2021/11/21 12:34:39;;;;;;;3.70;1.77;;;8.60;99.90;;;;;;5068891;28;20039;-52
2021/11/21 12:37:19;;;;;;;5.07;0.95;;;8.60;99.90;;;;;;5069964;28;20058;-52
2021/11/21 12:39:57;;;;;;;3.80;1.52;;;8.70;99.90;;;;;;5051503;28;20081;-51
2021/11/21 12:42:28;;;;;;;6.28;2.13;;;8.80;99.90;;;;;;5070261;28;20020;-50
2021/11/21 12:45:17;;;;;;;8.05;1.08;;;8.80;99.90;;;;;;5069840;28;20032;-54
2021/11/21 12:47:44;;;;;;;6.38;0.95;;;8.90;99.90;;;;;;5053848;28;20026;-53
2021/11/21 12:50:32;;;;;;;3.40;0.82;;;9.00;99.90;;;;;;5031613;28;20120;-57
2021/11/21 12:53:22;;;;;;;3.03;1.27;;;8.90;99.90;;;;;;5032425;28;20052;-55
2021/11/21 12:56:21;;;;;;;3.42;0.95;;;8.90;99.90;;;;;;5050416;28;20040;-52
2021/11/21 12:58:48;;;;;;;4.03;1.00;;;8.70;99.90;;;;;;5046757;28;20040;-53
2021/11/21 13:01:16;;;;;;;5.35;1.70;;;8.50;99.90;;;;;;5050686;28;20036;-53